Time;durP1;ratioP1;P1;durP2;ratioP2;P2;SDS_P1;SDS_P2;PMS_P1;PMS_P2;Temp;Humidity;BMP_temperature;BMP_pressure;BME280_temperature;BME280_humidity;BME280_pressure;Samples;Min_cycle;Max_cycle;Signal;HPM_P1;HPM_P2
2024/03/02 00:01:42;;;;;;;;;;;;;;;;;;4183098;28;19928;-61
2024/03/02 00:03:44;;;;;;;;;;;;;;;;;;4198881;28;19970;-60
2024/03/02 00:05:46;;;;;;;;;;;;;;;;;;4199756;28;19920;-60
2024/03/02 00:07:47;;;;;;;;;;;;;;;;;;4181765;28;19925;-60
2024/03/02 00:09:49;;;;;;;;;;;;;;;;;;4199553;28;19924;-61
2024/03/02 00:11:51;;;;;;;;;;;;;;;;;;4199501;28;19920;-61
2024/03/02 00:13:52;;;;;;;;;;;;;;;;;;4199736;28;19969;-61
2024/03/02 00:15:54;;;;;;;;;;;;;;;;;;4199490;28;20292;-60
2024/03/02 00:17:56;;;;;;;;;;;;;;;;;;4199559;28;20269;-60
2024/03/02 00:19:57;;;;;;;;;;;;;;;;;;4199498;28;19960;-60
2024/03/02 00:21:59;;;;;;;;;;;;;;;;;;4199332;28;19951;-61
2024/03/02 00:24:02;;;;;;;;;;;;;;;;;;4182712;28;19970;-61
2024/03/02 00:26:03;;;;;;;;;;;;;;;;;;4182848;28;19921;-61
2024/03/02 00:28:07;;;;;;;;;;;;;;;;;;4164852;28;19925;-60
2024/03/02 00:30:09;;;;;;;;;;;;;;;;;;4182639;28;19966;-60
2024/03/02 00:32:11;;;;;;;;;;;;;;;;;;4182595;28;19932;-61
2024/03/02 00:34:12;;;;;;;;;;;;;;;;;;4182748;28;20372;-64
2024/03/02 00:36:14;;;;;;;;;;;;;;;;;;4182529;28;19920;-65
2024/03/02 00:38:15;;;;;;;;;;;;;;;;;;4181895;28;19925;-64
2024/03/02 00:40:17;;;;;;;;;;;;;;;;;;4182000;28;19931;-65
2024/03/02 00:42:18;;;;;;;;;;;;;;;;;;4182463;28;20288;-65
2024/03/02 00:44:20;;;;;;;;;;;;;;;;;;4186340;28;19925;-64
2024/03/02 00:46:23;;;;;;;;;;;;;;;;;;4214405;28;19919;-64
2024/03/02 00:48:24;;;;;;;;;;;;;;;;;;4214494;28;19920;-64
2024/03/02 00:50:26;;;;;;;;;;;;;;;;;;4209224;28;19920;-64
2024/03/02 00:52:32;;;;;;;;;;;;;;;;;;4181002;28;19972;-64
2024/03/02 00:54:34;;;;;;;;;;;;;;;;;;4180668;28;19924;-65
2024/03/02 00:56:35;;;;;;;;;;;;;;;;;;4180847;28;20335;-64
2024/03/02 00:58:37;;;;;;;;;;;;;;;;;;4180975;28;19921;-64
2024/03/02 01:00:38;;;;;;;;;;;;;;;;;;4181011;28;19925;-64
2024/03/02 01:02:40;;;;;;;;;;;;;;;;;;4181028;28;20338;-64
2024/03/02 01:04:41;;;;;;;;;;;;;;;;;;4181995;28;19920;-65
2024/03/02 01:06:43;;;;;;;;;;;;;;;;;;4182098;28;19955;-65
2024/03/02 01:08:45;;;;;;;;;;;;;;;;;;4182300;28;19924;-65
2024/03/02 01:10:46;;;;;;;;;;;;;;;;;;4164287;28;19929;-65
2024/03/02 01:12:48;;;;;;;;;;;;;;;;;;4181946;28;20440;-64
2024/03/02 01:14:49;;;;;;;;;;;;;;;;;;4182029;28;19920;-64
2024/03/02 01:16:51;;;;;;;;;;;;;;;;;;4182112;28;20007;-64
2024/03/02 01:18:52;;;;;;;;;;;;;;;;;;4181804;28;19963;-65
2024/03/02 01:20:55;;;;;;;;;;;;;;;;;;4181905;28;19955;-65
2024/03/02 01:22:57;;;;;;;;;;;;;;;;;;4181607;28;19924;-65
2024/03/02 01:24:58;;;;;;;;;;;;;;;;;;4181824;28;20384;-64
2024/03/02 01:27:00;;;;;;;;;;;;;;;;;;4181928;28;20316;-64
2024/03/02 01:29:01;;;;;;;;;;;;;;;;;;4181856;28;19928;-65
2024/03/02 01:31:03;;;;;;;;;;;;;;;;;;4181964;28;19920;-64
2024/03/02 01:33:05;;;;;;;;;;;;;;;;;;4181651;28;20339;-64
2024/03/02 01:35:07;;;;;;;;;;;;;;;;;;4181982;28;19924;-65
2024/03/02 01:37:09;;;;;;;;;;;;;;;;;;4181700;28;19921;-65
2024/03/02 01:39:11;;;;;;;;;;;;;;;;;;4163903;28;19975;-65
2024/03/02 01:41:12;;;;;;;;;;;;;;;;;;4196236;28;19954;-64
2024/03/02 01:43:14;;;;;;;;;;;;;;;;;;4214900;28;19943;-65
2024/03/02 01:45:15;;;;;;;;;;;;;;;;;;4214649;28;19923;-61
2024/03/02 01:47:17;;;;;;;;;;;;;;;;;;4200102;28;19924;-60
2024/03/02 01:49:18;;;;;;;;;;;;;;;;;;4181375;28;19928;-60
2024/03/02 01:51:20;;;;;;;;;;;;;;;;;;4181229;28;19920;-61
2024/03/02 01:53:21;;;;;;;;;;;;;;;;;;4181339;28;19970;-60
2024/03/02 01:55:23;;;;;;;;;;;;;;;;;;4181549;28;19920;-61
2024/03/02 01:57:24;;;;;;;;;;;;;;;;;;4181204;28;19928;-60
2024/03/02 01:59:26;;;;;;;;;;;;;;;;;;4180489;28;19925;-60
2024/03/02 02:01:27;;;;;;;;;;;;;;;;;;4181305;28;19964;-60
2024/03/02 02:03:29;;;;;;;;;;;;;;;;;;4180956;28;19934;-60
2024/03/02 02:05:31;;;;;;;;;;;;;;;;;;4181059;28;19932;-61
2024/03/02 02:07:34;;;;;;;;;;;;;;;;;;4181431;28;19971;-61
2024/03/02 02:09:36;;;;;;;;;;;;;;;;;;4181231;28;19971;-60
2024/03/02 02:11:37;;;;;;;;;;;;;;;;;;4181248;28;19920;-60
2024/03/02 02:13:39;;;;;;;;;;;;;;;;;;4181237;28;19928;-60
2024/03/02 02:15:40;;;;;;;;;;;;;;;;;;4180978;28;19975;-60
2024/03/02 02:17:42;;;;;;;;;;;;;;;;;;4181126;28;19974;-61
2024/03/02 02:19:44;;;;;;;;;;;;;;;;;;4181245;28;19921;-60
2024/03/02 02:21:45;;;;;;;;;;;;;;;;;;4181178;28;19921;-60
2024/03/02 02:23:48;;;;;;;;;;;;;;;;;;4181300;28;19927;-60
2024/03/02 02:25:49;;;;;;;;;;;;;;;;;;4181038;28;19956;-60
2024/03/02 02:27:51;;;;;;;;;;;;;;;;;;4181264;28;19927;-60
2024/03/02 02:29:52;;;;;;;;;;;;;;;;;;4181059;28;19927;-60
2024/03/02 02:31:54;;;;;;;;;;;;;;;;;;4180962;28;19935;-60
2024/03/02 02:33:55;;;;;;;;;;;;;;;;;;4181551;28;20265;-60
2024/03/02 02:35:57;;;;;;;;;;;;;;;;;;4180989;28;20015;-60
2024/03/02 02:37:58;;;;;;;;;;;;;;;;;;4204149;28;19951;-61
2024/03/02 02:40:00;;;;;;;;;;;;;;;;;;4214400;28;20011;-60
2024/03/02 02:42:02;;;;;;;;;;;;;;;;;;4214335;28;20019;-60
2024/03/02 02:44:04;;;;;;;;;;;;;;;;;;4196972;28;20457;-61
2024/03/02 02:46:05;;;;;;;;;;;;;;;;;;4196325;28;19927;-61
2024/03/02 02:48:07;;;;;;;;;;;;;;;;;;4195615;28;19920;-61
2024/03/02 02:50:08;;;;;;;;;;;;;;;;;;4195930;28;19951;-60
2024/03/02 02:52:10;;;;;;;;;;;;;;;;;;4196065;28;20014;-60
2024/03/02 02:54:11;;;;;;;;;;;;;;;;;;4196309;28;19943;-61
2024/03/02 02:56:13;;;;;;;;;;;;;;;;;;4195963;28;19928;-60
2024/03/02 02:58:14;;;;;;;;;;;;;;;;;;4177867;28;19921;-60
2024/03/02 03:00:17;;;;;;;;;;;;;;;;;;4196154;28;19971;-60
2024/03/02 03:02:19;;;;;;;;;;;;;;;;;;4197516;28;19985;-60
2024/03/02 03:04:20;;;;;;;;;;;;;;;;;;4200318;28;20383;-60
2024/03/02 03:06:22;;;;;;;;;;;;;;;;;;4200551;28;19959;-60
2024/03/02 03:08:24;;;;;;;;;;;;;;;;;;4200694;28;19921;-60
2024/03/02 03:10:27;;;;;;;;;;;;;;;;;;4200520;28;19924;-60
2024/03/02 03:12:28;;;;;;;;;;;;;;;;;;4185997;28;20422;-61
2024/03/02 03:14:30;;;;;;;;;;;;;;;;;;4183927;28;20392;-60
2024/03/02 03:16:31;;;;;;;;;;;;;;;;;;4184092;28;19924;-61
2024/03/02 03:18:33;;;;;;;;;;;;;;;;;;4183897;28;19924;-60
2024/03/02 03:20:34;;;;;;;;;;;;;;;;;;4184031;28;19930;-60
2024/03/02 03:22:36;;;;;;;;;;;;;;;;;;4183767;28;19929;-60
2024/03/02 03:24:37;;;;;;;;;;;;;;;;;;4183850;28;19924;-60
2024/03/02 03:26:39;;;;;;;;;;;;;;;;;;4184002;28;20394;-60
2024/03/02 03:28:40;;;;;;;;;;;;;;;;;;4183598;28;19947;-60
2024/03/02 03:30:43;;;;;;;;;;;;;;;;;;4183514;28;19928;-60
2024/03/02 03:32:45;;;;;;;;;;;;;;;;;;4197979;28;19920;-60
2024/03/02 03:34:47;;;;;;;;;;;;;;;;;;4216821;28;19923;-60
2024/03/02 03:36:49;;;;;;;;;;;;;;;;;;4216861;28;19952;-60
2024/03/02 03:38:51;;;;;;;;;;;;;;;;;;4216835;28;19926;-60
2024/03/02 03:40:52;;;;;;;;;;;;;;;;;;4184217;28;20391;-60
2024/03/02 03:42:55;;;;;;;;;;;;;;;;;;4183486;28;19921;-60
2024/03/02 03:44:57;;;;;;;;;;;;;;;;;;4183086;28;19966;-61
2024/03/02 03:46:59;;;;;;;;;;;;;;;;;;4183311;28;19928;-61
2024/03/02 03:49:00;;;;;;;;;;;;;;;;;;4183299;28;19920;-60
2024/03/02 03:51:01;;;;;;;;;;;;;;;;;;4183183;28;20315;-61
2024/03/02 03:53:03;;;;;;;;;;;;;;;;;;4183279;28;20274;-60
2024/03/02 03:55:05;;;;;;;;;;;;;;;;;;4183351;28;19928;-60
2024/03/02 03:57:07;;;;;;;;;;;;;;;;;;4183258;28;19921;-60
2024/03/02 03:59:08;;;;;;;;;;;;;;;;;;4183561;28;19921;-60
2024/03/02 04:01:10;;;;;;;;;;;;;;;;;;4183041;28;19921;-60
2024/03/02 04:03:11;;;;;;;;;;;;;;;;;;4183301;28;19999;-61
2024/03/02 04:05:13;;;;;;;;;;;;;;;;;;4183219;28;19960;-61
2024/03/02 04:07:14;;;;;;;;;;;;;;;;;;4183042;28;19968;-60
2024/03/02 04:09:16;;;;;;;;;;;;;;;;;;4183144;28;19935;-60
2024/03/02 04:11:17;;;;;;;;;;;;;;;;;;4182990;28;19924;-60
2024/03/02 04:13:19;;;;;;;;;;;;;;;;;;4182882;28;19928;-60
2024/03/02 04:15:20;;;;;;;;;;;;;;;;;;4182963;28;20363;-60
2024/03/02 04:17:22;;;;;;;;;;;;;;;;;;4182855;28;19920;-61
2024/03/02 04:19:23;;;;;;;;;;;;;;;;;;4183235;28;19921;-60
2024/03/02 04:21:25;;;;;;;;;;;;;;;;;;4182877;28;19968;-60
2024/03/02 04:23:26;;;;;;;;;;;;;;;;;;4182735;28;19929;-60
2024/03/02 04:25:27;;;;;;;;;;;;;;;;;;4182829;28;20360;-61
2024/03/02 04:27:29;;;;;;;;;;;;;;;;;;4182995;28;19943;-60
2024/03/02 04:29:31;;;;;;;;;;;;;;;;;;4189988;28;19919;-60
2024/03/02 04:31:32;;;;;;;;;;;;;;;;;;4216225;28;19920;-60
2024/03/02 04:33:34;;;;;;;;;;;;;;;;;;4215854;28;19920;-60
2024/03/02 04:35:35;;;;;;;;;;;;;;;;;;4208831;28;19920;-60
2024/03/02 04:37:37;;;;;;;;;;;;;;;;;;4182933;28;19924;-60
2024/03/02 04:39:38;;;;;;;;;;;;;;;;;;4182658;28;20436;-60
2024/03/02 04:41:40;;;;;;;;;;;;;;;;;;4182736;28;20372;-60
2024/03/02 04:43:41;;;;;;;;;;;;;;;;;;4182385;28;19971;-61
2024/03/02 04:45:43;;;;;;;;;;;;;;;;;;4182116;28;20400;-60
2024/03/02 04:47:44;;;;;;;;;;;;;;;;;;4182353;28;20376;-60
2024/03/02 04:49:49;;;;;;;;;;;;;;;;;;4182503;28;19927;-60
2024/03/02 04:51:51;;;;;;;;;;;;;;;;;;4182370;28;20499;-60
2024/03/02 04:53:52;;;;;;;;;;;;;;;;;;4182307;28;19921;-60
2024/03/02 04:57:55;;;;;;;;;;;;;;;;;;4164430;28;19921;-61
2024/03/02 04:59:57;;;;;;;;;;;;;;;;;;4182174;28;19925;-61
2024/03/02 05:01:59;;;;;;;;;;;;;;;;;;4182438;28;19921;-61
2024/03/02 05:04:00;;;;;;;;;;;;;;;;;;4181782;28;20304;-60
2024/03/02 05:06:02;;;;;;;;;;;;;;;;;;4164399;28;19995;-61
2024/03/02 05:08:03;;;;;;;;;;;;;;;;;;4192844;28;19942;-60
2024/03/02 05:10:05;;;;;;;;;;;;;;;;;;4198576;28;19927;-60
2024/03/02 05:14:17;;;;;;;;;;;;;;;;;;4198685;28;20401;-61
2024/03/02 05:16:18;;;;;;;;;;;;;;;;;;4198651;28;19951;-64
2024/03/02 05:18:20;;;;;;;;;;;;;;;;;;4198229;28;19920;-64
2024/03/02 05:20:21;;;;;;;;;;;;;;;;;;4198391;28;19928;-64
2024/03/02 05:22:23;;;;;;;;;;;;;;;;;;4198388;28;19921;-64
2024/03/02 05:24:27;;;;;;;;;;;;;;;;;;4198102;28;19951;-64
2024/03/02 05:26:28;;;;;;;;;;;;;;;;;;4207590;28;19966;-64
2024/03/02 05:28:30;;;;;;;;;;;;;;;;;;4214902;28;20387;-64
2024/03/02 05:30:31;;;;;;;;;;;;;;;;;;4214943;28;19970;-64
2024/03/02 05:32:33;;;;;;;;;;;;;;;;;;4197433;28;20037;-63
2024/03/02 05:34:35;;;;;;;;;;;;;;;;;;4181712;28;20162;-63
2024/03/02 05:36:38;;;;;;;;;;;;;;;;;;4181655;28;20296;-64
2024/03/02 05:38:40;;;;;;;;;;;;;;;;;;4181261;28;19924;-64
2024/03/02 05:40:41;;;;;;;;;;;;;;;;;;4181686;28;20403;-64
2024/03/02 05:42:43;;;;;;;;;;;;;;;;;;4181446;28;19928;-64
2024/03/02 05:44:44;;;;;;;;;;;;;;;;;;4181071;28;19960;-64
2024/03/02 05:46:46;;;;;;;;;;;;;;;;;;4181481;28;19966;-63
2024/03/02 05:48:47;;;;;;;;;;;;;;;;;;4181496;28;19977;-64
2024/03/02 05:50:49;;;;;;;;;;;;;;;;;;4181438;28;19927;-63
2024/03/02 05:52:50;;;;;;;;;;;;;;;;;;4181277;28;19921;-64
2024/03/02 05:54:52;;;;;;;;;;;;;;;;;;4181369;28;19921;-64
2024/03/02 05:56:53;;;;;;;;;;;;;;;;;;4181392;28;19959;-64
2024/03/02 05:59:13;;;;;;;;;;;;;;;;;;4181559;28;19975;-65
2024/03/02 06:01:15;;;;;;;;;;;;;;;;;;4181294;28;19966;-64
2024/03/02 06:03:16;;;;;;;;;;;;;;;;;;4190254;28;19981;-65
2024/03/02 06:05:18;;;;;;;;;;;;;;;;;;4189036;28;20011;-64
2024/03/02 06:07:20;;;;;;;;;;;;;;;;;;4190976;28;20339;-64
2024/03/02 06:09:23;;;;;;;;;;;;;;;;;;4181102;28;19920;-64
2024/03/02 06:11:24;;;;;;;;;;;;;;;;;;4184101;28;19963;-64
2024/03/02 06:13:26;;;;;;;;;;;;;;;;;;4191537;28;19931;-63
2024/03/02 06:15:27;;;;;;;;;;;;;;;;;;4181014;28;19925;-63
2024/03/02 06:17:29;;;;;;;;;;;;;;;;;;4190538;28;19921;-64
2024/03/02 06:19:31;;;;;;;;;;;;;;;;;;4197263;28;19986;-62
2024/03/02 06:21:32;;;;;;;;;;;;;;;;;;4197196;28;19959;-66
2024/03/02 06:23:34;;;;;;;;;;;;;;;;;;4206657;28;20851;-66
2024/03/02 06:25:36;;;;;;;;;;;;;;;;;;4185720;28;19920;-66
2024/03/02 06:27:37;;;;;;;;;;;;;;;;;;4189665;28;19924;-67
2024/03/02 06:29:39;;;;;;;;;;;;;;;;;;4180755;28;19925;-67
2024/03/02 06:31:40;;;;;;;;;;;;;;;;;;4180839;28;19928;-67
2024/03/02 06:33:42;;;;;;;;;;;;;;;;;;4162998;28;19979;-67
2024/03/02 06:35:43;;;;;;;;;;;;;;;;;;4180974;28;19925;-66
2024/03/02 06:37:45;;;;;;;;;;;;;;;;;;4182739;28;20344;-66
2024/03/02 06:39:46;;;;;;;;;;;;;;;;;;4184498;28;19925;-66
2024/03/02 06:41:48;;;;;;;;;;;;;;;;;;4184262;28;19931;-66
2024/03/02 06:43:49;;;;;;;;;;;;;;;;;;4184666;28;19925;-67
2024/03/02 06:45:51;;;;;;;;;;;;;;;;;;4189381;28;19927;-66
2024/03/02 06:47:52;;;;;;;;;;;;;;;;;;4194187;28;19931;-67
2024/03/02 06:49:54;;;;;;;;;;;;;;;;;;4189463;28;19924;-66
2024/03/02 06:51:55;;;;;;;;;;;;;;;;;;4194575;28;19924;-57
2024/03/02 06:53:57;;;;;;;;;;;;;;;;;;4188258;28;19986;-58
2024/03/02 06:55:59;;;;;;;;;;;;;;;;;;4184228;28;19921;-56
2024/03/02 06:58:00;;;;;;;;;;;;;;;;;;4185209;28;19928;-57
2024/03/02 07:00:04;;;;;;;;;;;;;;;;;;4186207;28;19974;-57
2024/03/02 07:02:06;;;;;;;;;;;;;;;;;;4191485;28;20103;-57
2024/03/02 07:04:08;;;;;;;;;;;;;;;;;;4174679;28;20035;-56
2024/03/02 07:06:09;;;;;;;;;;;;;;;;;;4190504;28;19963;-56
2024/03/02 07:08:11;;;;;;;;;;;;;;;;;;4188557;28;19924;-57
2024/03/02 07:10:12;;;;;;;;;;;;;;;;;;4183198;28;19931;-57
2024/03/02 07:12:14;;;;;;;;;;;;;;;;;;4182589;28;19924;-56
2024/03/02 07:14:15;;;;;;;;;;;;;;;;;;4182205;28;20363;-57
2024/03/02 07:16:32;;;;;;;;;;;;;;;;;;4181707;28;19943;-57
2024/03/02 07:18:34;;;;;;;;;;;;;;;;;;4191116;28;20405;-57
2024/03/02 07:20:38;;;;;;;;;;;;;;;;;;4184632;28;19928;-57
2024/03/02 07:22:39;;;;;;;;;;;;;;;;;;4200109;28;19953;-57
2024/03/02 07:24:45;;;;;;;;;;;;;;;;;;4197341;28;19978;-57
2024/03/02 07:26:47;;;;;;;;;;;;;;;;;;4195434;28;20463;-57
2024/03/02 07:28:51;;;;;;;;;;;;;;;;;;4185237;28;19993;-57
2024/03/02 07:30:53;;;;;;;;;;;;;;;;;;4185520;28;20396;-57
2024/03/02 07:32:54;;;;;;;;;;;;;;;;;;4175816;28;19921;-57
2024/03/02 07:34:56;;;;;;;;;;;;;;;;;;4165485;28;20012;-56
2024/03/02 07:36:57;;;;;;;;;;;;;;;;;;4182930;28;19924;-57
2024/03/02 07:38:59;;;;;;;;;;;;;;;;;;4184422;28;19929;-56
2024/03/02 07:41:00;;;;;;;;;;;;;;;;;;4190651;28;19994;-56
2024/03/02 07:43:02;;;;;;;;;;;;;;;;;;4185277;28;19924;-58
2024/03/02 07:45:03;;;;;;;;;;;;;;;;;;4196041;28;19924;-57
2024/03/02 07:47:05;;;;;;;;;;;;;;;;;;4188351;28;19925;-57
2024/03/02 07:49:06;;;;;;;;;;;;;;;;;;4186556;28;20384;-57
2024/03/02 07:51:07;;;;;;;;;;;;;;;;;;4190859;28;19924;-56
2024/03/02 07:53:09;;;;;;;;;;;;;;;;;;4182102;28;19982;-57
2024/03/02 07:55:11;;;;;;;;;;;;;;;;;;4183460;28;20435;-57
2024/03/02 07:57:12;;;;;;;;;;;;;;;;;;4182527;28;19939;-58
2024/03/02 07:59:14;;;;;;;;;;;;;;;;;;4177465;28;19920;-57
2024/03/02 08:01:15;;;;;;;;;;;;;;;;;;4182814;28;19970;-59
2024/03/02 08:03:17;;;;;;;;;;;;;;;;;;4195111;28;20015;-57
2024/03/02 08:05:21;;;;;;;;;;;;;;;;;;4198959;28;19924;-58
2024/03/02 08:07:23;;;;;;;;;;;;;;;;;;4199331;28;19947;-59
2024/03/02 08:09:24;;;;;;;;;;;;;;;;;;4189651;28;19963;-59
2024/03/02 08:11:27;;;;;;;;;;;;;;;;;;4189515;28;19928;-58
2024/03/02 08:13:28;;;;;;;;;;;;;;;;;;4182152;28;19927;-58
2024/03/02 08:15:30;;;;;;;;;;;;;;;;;;4208621;28;19931;-58
2024/03/02 08:17:31;;;;;;;;;;;;;;;;;;4194580;28;19925;-58
2024/03/02 08:19:36;;;;;;;;;;;;;;;;;;4187918;28;19920;-58
2024/03/02 08:21:38;;;;;;;;;;;;;;;;;;4169072;28;19933;-58
2024/03/02 08:23:40;;;;;;;;;;;;;;;;;;4199205;28;19924;-58
2024/03/02 08:25:43;;;;;;;;;;;;;;;;;;4191970;28;19928;-56
2024/03/02 08:27:45;;;;;;;;;;;;;;;;;;4181358;28;20384;-58
2024/03/02 08:29:46;;;;;;;;;;;;;;;;;;4164301;28;19921;-58
2024/03/02 08:31:49;;;;;;;;;;;;;;;;;;4181845;28;19921;-58
2024/03/02 08:33:50;;;;;;;;;;;;;;;;;;4176735;28;19921;-56
2024/03/02 08:35:52;;;;;;;;;;;;;;;;;;4185857;28;19967;-58
2024/03/02 08:37:53;;;;;;;;;;;;;;;;;;4182115;28;20012;-58
2024/03/02 08:39:55;;;;;;;;;;;;;;;;;;4183869;28;19973;-58
2024/03/02 08:41:57;;;;;;;;;;;;;;;;;;4167804;28;19924;-58
2024/03/02 08:43:58;;;;;;;;;;;;;;;;;;4187932;28;19924;-57
2024/03/02 08:45:59;;;;;;;;;;;;;;;;;;4191805;28;19936;-59
2024/03/02 08:48:01;;;;;;;;;;;;;;;;;;4191179;28;20320;-58
2024/03/02 08:50:03;;;;;;;;;;;;;;;;;;4188542;28;19963;-58
2024/03/02 08:52:05;;;;;;;;;;;;;;;;;;4188898;28;19925;-58
2024/03/02 08:54:06;;;;;;;;;;;;;;;;;;4187689;28;19921;-57
2024/03/02 08:56:08;;;;;;;;;;;;;;;;;;4185098;28;19979;-58
2024/03/02 08:58:09;;;;;;;;;;;;;;;;;;4190291;28;19932;-57
2024/03/02 09:00:11;;;;;;;;;;;;;;;;;;4181026;28;19927;-56
2024/03/02 09:02:12;;;;;;;;;;;;;;;;;;4181661;28;20204;-56
2024/03/02 09:04:14;;;;;;;;;;;;;;;;;;4181593;28;20444;-57
2024/03/02 09:06:16;;;;;;;;;;;;;;;;;;4182245;28;19921;-58
2024/03/02 09:08:18;;;;;;;;;;;;;;;;;;4183230;28;20462;-58
2024/03/02 09:10:19;;;;;;;;;;;;;;;;;;4194118;28;19978;-58
2024/03/02 09:12:21;;;;;;;;;;;;;;;;;;4191458;28;20373;-58
2024/03/02 09:14:23;;;;;;;;;;;;;;;;;;4198599;28;19927;-56
2024/03/02 09:16:30;;;;;;;;;;;;;;;;;;4198426;28;19921;-58
2024/03/02 09:18:32;;;;;;;;;;;;;;;;;;4198395;28;19924;-58
2024/03/02 09:20:33;;;;;;;;;;;;;;;;;;4198249;28;19920;-57
2024/03/02 09:22:35;;;;;;;;;;;;;;;;;;4198275;28;20383;-58
2024/03/02 09:24:36;;;;;;;;;;;;;;;;;;4196741;28;19920;-57
2024/03/02 09:26:38;;;;;;;;;;;;;;;;;;4197531;28;19920;-58
2024/03/02 09:28:39;;;;;;;;;;;;;;;;;;4194884;28;20376;-57
2024/03/02 09:30:41;;;;;;;;;;;;;;;;;;4184248;28;19928;-57
2024/03/02 09:32:42;;;;;;;;;;;;;;;;;;4191205;28;19994;-57
2024/03/02 09:34:44;;;;;;;;;;;;;;;;;;4198216;28;20015;-58
2024/03/02 09:36:46;;;;;;;;;;;;;;;;;;4197423;28;19924;-56
2024/03/02 09:38:47;;;;;;;;;;;;;;;;;;4192063;28;20356;-58
2024/03/02 09:40:49;;;;;;;;;;;;;;;;;;4181707;28;19921;-59
2024/03/02 09:42:52;;;;;;;;;;;;;;;;;;4182009;28;19920;-58
2024/03/02 09:44:54;;;;;;;;;;;;;;;;;;4181088;28;19971;-58
2024/03/02 09:46:56;;;;;;;;;;;;;;;;;;4183884;28;19921;-58
2024/03/02 09:48:57;;;;;;;;;;;;;;;;;;4182176;28;19920;-56
2024/03/02 09:50:58;;;;;;;;;;;;;;;;;;4181459;28;19954;-59
2024/03/02 09:53:00;;;;;;;;;;;;;;;;;;4181693;28;19951;-59
2024/03/02 09:55:02;;;;;;;;;;;;;;;;;;4192084;28;19924;-59
2024/03/02 09:57:04;;;;;;;;;;;;;;;;;;4180525;28;19929;-59
2024/03/02 09:59:05;;;;;;;;;;;;;;;;;;4189214;28;20972;-58
2024/03/02 10:01:07;;;;;;;;;;;;;;;;;;4197625;28;20300;-56
2024/03/02 10:03:08;;;;;;;;;;;;;;;;;;4186434;28;19920;-58
2024/03/02 10:05:11;;;;;;;;;;;;;;;;;;4181032;28;20359;-59
2024/03/02 10:07:13;;;;;;;;;;;;;;;;;;4184821;28;19924;-59
2024/03/02 10:09:14;;;;;;;;;;;;;;;;;;4180988;28;19920;-59
2024/03/02 10:11:17;;;;;;;;;;;;;;;;;;4196501;28;19974;-58
2024/03/02 10:13:18;;;;;;;;;;;;;;;;;;4197636;28;19924;-59
2024/03/02 10:15:20;;;;;;;;;;;;;;;;;;4196979;28;19931;-59
2024/03/02 10:17:21;;;;;;;;;;;;;;;;;;4190210;28;19924;-57
2024/03/02 10:19:23;;;;;;;;;;;;;;;;;;4183233;28;19928;-56
2024/03/02 10:21:25;;;;;;;;;;;;;;;;;;4193078;28;19926;-57
2024/03/02 10:23:26;;;;;;;;;;;;;;;;;;4184075;28;20026;-57
2024/03/02 10:25:28;;;;;;;;;;;;;;;;;;4190937;28;19920;-57
2024/03/02 10:27:39;;;;;;;;;;;;;;;;;;4181021;28;19920;-57
2024/03/02 10:29:41;;;;;;;;;;;;;;;;;;4184781;28;19965;-57
2024/03/02 10:31:42;;;;;;;;;;;;;;;;;;4184035;28;19986;-56
2024/03/02 10:33:44;;;;;;;;;;;;;;;;;;4188003;28;19998;-56
2024/03/02 10:35:45;;;;;;;;;;;;;;;;;;4187531;28;20018;-56
2024/03/02 10:37:47;;;;;;;;;;;;;;;;;;4189765;28;20307;-56
2024/03/02 10:39:48;;;;;;;;;;;;;;;;;;4180761;28;19928;-57
2024/03/02 10:41:50;;;;;;;;;;;;;;;;;;4180102;28;19925;-56
2024/03/02 10:43:52;;;;;;;;;;;;;;;;;;4180322;28;19936;-56
2024/03/02 10:45:53;;;;;;;;;;;;;;;;;;4183526;28;19990;-57
2024/03/02 10:47:54;;;;;;;;;;;;;;;;;;4192179;28;20366;-56
2024/03/02 10:49:56;;;;;;;;;;;;;;;;;;4190132;28;19936;-56
2024/03/02 10:51:57;;;;;;;;;;;;;;;;;;4185256;28;20296;-56
2024/03/02 10:54:00;;;;;;;;;;;;;;;;;;4183293;28;19925;-55
2024/03/02 10:56:04;;;;;;;;;;;;;;;;;;4183247;28;19936;-56
2024/03/02 10:58:06;;;;;;;;;;;;;;;;;;4191303;28;20023;-56
2024/03/02 11:00:14;;;;;;;;;;;;;;;;;;4194718;28;19928;-56
2024/03/02 11:02:15;;;;;;;;;;;;;;;;;;4194715;28;20451;-56
2024/03/02 11:04:17;;;;;;;;;;;;;;;;;;4206685;28;19977;-56
2024/03/02 11:06:18;;;;;;;;;;;;;;;;;;4189932;28;19968;-56
2024/03/02 11:08:21;;;;;;;;;;;;;;;;;;4179444;28;19928;-55
2024/03/02 11:10:22;;;;;;;;;;;;;;;;;;4187935;28;19921;-56
2024/03/02 11:12:24;;;;;;;;;;;;;;;;;;4186202;28;19971;-57
2024/03/02 11:14:25;;;;;;;;;;;;;;;;;;4189082;28;19920;-57
2024/03/02 11:16:27;;;;;;;;;;;;;;;;;;4185085;28;19924;-58
2024/03/02 11:18:28;;;;;;;;;;;;;;;;;;4180535;28;19921;-59
2024/03/02 11:20:30;;;;;;;;;;;;;;;;;;4181247;28;19975;-59
2024/03/02 11:22:31;;;;;;;;;;;;;;;;;;4184568;28;19935;-57
2024/03/02 11:24:33;;;;;;;;;;;;;;;;;;4191296;28;20344;-59
2024/03/02 11:26:38;;;;;;;;;;;;;;;;;;4197201;28;19921;-59
2024/03/02 11:28:39;;;;;;;;;;;;;;;;;;4191103;28;19951;-58
2024/03/02 11:30:42;;;;;;;;;;;;;;;;;;4186035;28;20384;-59
2024/03/02 11:32:43;;;;;;;;;;;;;;;;;;4189231;28;20099;-58
2024/03/02 11:34:46;;;;;;;;;;;;;;;;;;4190802;28;19920;-59
2024/03/02 11:36:47;;;;;;;;;;;;;;;;;;4182900;28;19935;-58
2024/03/02 11:38:53;;;;;;;;;;;;;;;;;;4181970;28;20296;-58
2024/03/02 11:40:54;;;;;;;;;;;;;;;;;;4184731;28;20039;-56
2024/03/02 11:42:56;;;;;;;;;;;;;;;;;;4191349;28;19979;-58
2024/03/02 11:44:58;;;;;;;;;;;;;;;;;;4180255;28;19954;-58
2024/03/02 11:46:59;;;;;;;;;;;;;;;;;;4190793;28;19931;-58
2024/03/02 11:49:01;;;;;;;;;;;;;;;;;;4186616;28;19967;-59
2024/03/02 11:51:02;;;;;;;;;;;;;;;;;;4195565;28;19930;-56
2024/03/02 11:53:06;;;;;;;;;;;;;;;;;;4189458;28;19921;-58
2024/03/02 11:55:09;;;;;;;;;;;;;;;;;;4185404;28;20435;-59
2024/03/02 11:57:11;;;;;;;;;;;;;;;;;;4188816;28;19948;-59
2024/03/02 11:59:13;;;;;;;;;;;;;;;;;;4184156;28;19928;-59
2024/03/02 12:01:14;;;;;;;;;;;;;;;;;;4189026;28;20316;-57
2024/03/02 12:03:16;;;;;;;;;;;;;;;;;;4186219;28;19948;-58
2024/03/02 12:05:18;;;;;;;;;;;;;;;;;;4184739;28;19931;-58
2024/03/02 12:07:23;;;;;;;;;;;;;;;;;;4187644;28;20628;-58
2024/03/02 12:09:26;;;;;;;;;;;;;;;;;;4187386;28;19954;-59
2024/03/02 12:11:27;;;;;;;;;;;;;;;;;;4184126;28;19951;-59
2024/03/02 12:13:29;;;;;;;;;;;;;;;;;;4183813;28;19928;-59
2024/03/02 12:15:30;;;;;;;;;;;;;;;;;;4183850;28;19924;-58
2024/03/02 12:17:32;;;;;;;;;;;;;;;;;;4186406;28;19931;-66
2024/03/02 12:19:33;;;;;;;;;;;;;;;;;;4188199;28;19925;-66
2024/03/02 12:21:35;;;;;;;;;;;;;;;;;;4180371;28;20261;-66
2024/03/02 12:23:37;;;;;;;;;;;;;;;;;;4190874;28;19920;-65
2024/03/02 12:25:41;;;;;;;;;;;;;;;;;;4184666;28;19921;-65
2024/03/02 12:27:43;;;;;;;;;;;;;;;;;;4195209;28;19920;-63
2024/03/02 12:29:44;;;;;;;;;;;;;;;;;;4197085;28;19924;-62
2024/03/02 12:31:46;;;;;;;;;;;;;;;;;;4171677;28;19921;-62
2024/03/02 12:33:47;;;;;;;;;;;;;;;;;;4182033;28;19999;-62
2024/03/02 12:35:49;;;;;;;;;;;;;;;;;;4187631;28;20139;-63
2024/03/02 12:37:50;;;;;;;;;;;;;;;;;;4195139;28;20397;-62
2024/03/02 12:39:52;;;;;;;;;;;;;;;;;;4176674;28;19990;-56
2024/03/02 12:41:55;;;;;;;;;;;;;;;;;;4185727;28;19982;-56
2024/03/02 12:43:56;;;;;;;;;;;;;;;;;;4181543;28;19967;-56
2024/03/02 12:45:58;;;;;;;;;;;;;;;;;;4181362;28;19932;-56
2024/03/02 12:47:59;;;;;;;;;;;;;;;;;;4181984;28;19974;-57
2024/03/02 12:50:01;;;;;;;;;;;;;;;;;;4182462;28;19928;-57
2024/03/02 12:52:02;;;;;;;;;;;;;;;;;;4182330;28;19939;-57
2024/03/02 12:54:05;;;;;;;;;;;;;;;;;;4182317;28;19920;-57
2024/03/02 12:56:06;;;;;;;;;;;;;;;;;;4195210;28;19970;-57
2024/03/02 12:58:08;;;;;;;;;;;;;;;;;;4215611;28;19924;-58
2024/03/02 13:00:09;;;;;;;;;;;;;;;;;;4215467;28;19977;-57
2024/03/02 13:02:11;;;;;;;;;;;;;;;;;;4215441;28;19928;-57
2024/03/02 13:04:12;;;;;;;;;;;;;;;;;;4215211;28;19920;-57
2024/03/02 13:06:14;;;;;;;;;;;;;;;;;;4197727;28;19951;-57
2024/03/02 13:08:15;;;;;;;;;;;;;;;;;;4215365;28;19920;-57
2024/03/02 13:10:17;;;;;;;;;;;;;;;;;;4215303;28;19930;-57
2024/03/02 13:12:19;;;;;;;;;;;;;;;;;;4183239;28;19924;-57
2024/03/02 13:14:21;;;;;;;;;;;;;;;;;;4181995;28;19924;-56
2024/03/02 13:16:22;;;;;;;;;;;;;;;;;;4181833;28;19921;-57
2024/03/02 13:18:31;;;;;;;;;;;;;;;;;;4184814;28;19943;-57
2024/03/02 13:20:32;;;;;;;;;;;;;;;;;;4196645;28;19924;-57
2024/03/02 13:22:34;;;;;;;;;;;;;;;;;;4182035;28;19924;-57
2024/03/02 13:24:36;;;;;;;;;;;;;;;;;;4181988;28;19927;-57
2024/03/02 13:26:37;;;;;;;;;;;;;;;;;;4181824;28;19924;-57
2024/03/02 13:28:39;;;;;;;;;;;;;;;;;;4181678;28;20285;-56
2024/03/02 13:30:41;;;;;;;;;;;;;;;;;;4182258;28;19924;-56
2024/03/02 13:32:42;;;;;;;;;;;;;;;;;;4181474;28;19920;-55
2024/03/02 13:34:44;;;;;;;;;;;;;;;;;;4186646;28;19921;-56
2024/03/02 13:36:45;;;;;;;;;;;;;;;;;;4181320;28;20262;-57
2024/03/02 13:38:48;;;;;;;;;;;;;;;;;;4181480;28;19924;-58
2024/03/02 13:40:51;;;;;;;;;;;;;;;;;;4181154;28;19929;-57
2024/03/02 13:42:53;;;;;;;;;;;;;;;;;;4181480;28;20300;-56
2024/03/02 13:44:55;;;;;;;;;;;;;;;;;;4181229;28;19921;-62
2024/03/02 13:46:58;;;;;;;;;;;;;;;;;;4180166;28;19979;-62
2024/03/02 13:48:59;;;;;;;;;;;;;;;;;;4180764;28;19947;-63
2024/03/02 13:51:01;;;;;;;;;;;;;;;;;;4181419;28;19925;-62
2024/03/02 13:53:03;;;;;;;;;;;;;;;;;;4205667;28;19970;-62
2024/03/02 13:55:04;;;;;;;;;;;;;;;;;;4196818;28;19920;-62
2024/03/02 13:57:06;;;;;;;;;;;;;;;;;;4214968;28;19924;-63